Time;durP1;ratioP1;P1;durP2;ratioP2;P2;SDS_P1;SDS_P2;PMS_P1;PMS_P2;Temp;Humidity;BMP_temperature;BMP_pressure;BME280_temperature;BME280_humidity;BME280_pressure;Samples;Min_cycle;Max_cycle;Signal;HPM_P1;HPM_P2
2020/12/14 00:02:17;;;;;;;53.05;28.73;;;;;;;1.63;100.00;100105.63;10496252;28;20114;-71
2020/12/14 00:07:19;;;;;;;58.53;30.00;;;;;;;1.56;100.00;100104.09;10498301;28;20052;-70
2020/12/14 00:12:20;;;;;;;55.58;30.23;;;;;;;1.44;100.00;100108.66;10497859;28;20053;-70
2020/12/14 00:17:21;;;;;;;43.38;24.88;;;;;;;1.39;100.00;100111.34;10498137;28;20073;-70
2020/12/14 00:22:22;;;;;;;41.05;22.85;;;;;;;1.44;100.00;100103.50;10497825;28;20496;-71
2020/12/14 00:27:23;;;;;;;29.50;17.52;;;;;;;1.47;100.00;100095.72;10497246;28;20052;-70
2020/12/14 00:32:24;;;;;;;33.10;18.67;;;;;;;1.53;100.00;100098.13;10496621;28;20060;-70
2020/12/14 00:37:25;;;;;;;29.25;18.27;;;;;;;1.65;100.00;100095.28;10497324;28;20051;-70
2020/12/14 00:42:26;;;;;;;39.65;20.77;;;;;;;1.78;100.00;100082.97;10466738;23;20073;-69
2020/12/14 00:47:29;;;;;;;36.42;19.83;;;;;;;1.73;100.00;100074.50;10455130;28;20380;-69
2020/12/14 00:52:30;;;;;;;39.03;22.63;;;;;;;1.71;100.00;100062.47;10491734;28;20051;-70
2020/12/14 00:57:31;;;;;;;41.63;22.73;;;;;;;1.65;100.00;100066.91;10496396;28;20099;-70
2020/12/14 01:02:32;;;;;;;39.72;20.80;;;;;;;1.59;100.00;100078.22;10476935;28;20056;-70
2020/12/14 01:07:32;;;;;;;31.23;17.90;;;;;;;1.55;100.00;100104.13;10477907;28;20055;-69
2020/12/14 01:12:33;;;;;;;38.25;20.17;;;;;;;1.63;100.00;100105.63;10476638;28;20048;-70
2020/12/14 01:17:34;;;;;;;30.77;17.27;;;;;;;1.67;100.00;100109.88;10491311;28;20057;-70
2020/12/14 01:22:35;;;;;;;36.63;19.15;;;;;;;1.69;100.00;100105.50;10435553;28;20059;-70
2020/12/14 01:27:37;;;;;;;35.35;18.67;;;;;;;1.64;100.00;100094.44;10453579;28;20056;-69
2020/12/14 01:32:38;;;;;;;30.48;17.40;;;;;;;1.54;100.00;100100.69;10452192;28;20118;-69
2020/12/14 01:37:39;;;;;;;29.90;17.50;;;;;;;1.50;100.00;100093.06;10453466;28;20049;-70
2020/12/14 01:42:40;;;;;;;32.80;19.05;;;;;;;1.45;100.00;100105.19;10453030;28;20049;-70
2020/12/14 01:47:43;;;;;;;29.13;17.63;;;;;;;1.43;100.00;100107.81;10453058;28;20110;-70
2020/12/14 01:52:46;;;;;;;28.40;16.63;;;;;;;1.39;100.00;100116.50;10452866;28;20056;-69
2020/12/14 01:57:47;;;;;;;32.05;17.33;;;;;;;1.37;100.00;100107.13;10434541;28;20045;-69
2020/12/14 02:02:47;;;;;;;29.55;17.63;;;;;;;1.28;100.00;100124.44;10451120;28;20063;-69
2020/12/14 02:07:48;;;;;;;27.00;15.73;;;;;;;1.22;100.00;100114.25;10452224;28;20140;-69
2020/12/14 02:12:50;;;;;;;23.60;14.90;;;;;;;1.15;100.00;100102.41;10451924;28;20119;-69
2020/12/14 02:17:51;;;;;;;25.83;14.90;;;;;;;1.09;100.00;100092.22;10451682;28;20168;-69
2020/12/14 02:22:52;;;;;;;23.90;14.30;;;;;;;1.03;100.00;100069.16;10450485;28;20057;-69
2020/12/14 02:27:53;;;;;;;31.08;15.25;;;;;;;0.98;100.00;100062.38;10436470;28;20648;-69
2020/12/14 02:32:54;;;;;;;25.15;14.35;;;;;;;0.92;100.00;100073.66;10409676;28;20045;-69
2020/12/14 02:37:55;;;;;;;25.17;14.45;;;;;;;0.94;100.00;100077.06;10410337;28;20402;-69
2020/12/14 02:42:56;;;;;;;23.50;13.75;;;;;;;0.96;100.00;100077.06;10409432;28;20473;-69
2020/12/14 02:47:57;;;;;;;25.33;13.38;;;;;;;0.96;100.00;100064.16;10410194;28;20049;-69
2020/12/14 02:52:58;;;;;;;24.95;14.13;;;;;;;0.89;100.00;100058.28;10409444;28;20081;-69
2020/12/14 02:57:59;;;;;;;28.67;14.93;;;;;;;0.81;100.00;100053.28;10409702;28;20413;-69
2020/12/14 03:03:00;;;;;;;26.30;14.50;;;;;;;0.77;100.00;100056.78;10408703;28;20466;-69
2020/12/14 03:08:01;;;;;;;22.55;12.90;;;;;;;0.68;100.00;100053.56;10409194;28;20061;-69
2020/12/14 03:13:01;;;;;;;20.42;12.52;;;;;;;0.63;100.00;100051.06;10409245;28;20053;-69
2020/12/14 03:18:06;;;;;;;23.23;11.90;;;;;;;0.59;100.00;100049.44;10408750;28;20049;-69
2020/12/14 03:23:07;;;;;;;20.92;12.57;;;;;;;0.51;100.00;100051.31;10408905;28;20516;-69
2020/12/14 03:28:08;;;;;;;21.67;11.13;;;;;;;0.48;100.00;100041.06;10430674;28;20140;-69
2020/12/14 03:33:11;;;;;;;19.75;12.00;;;;;;;0.47;100.00;100039.38;10449738;28;20056;-69
2020/12/14 03:38:12;;;;;;;18.98;11.43;;;;;;;0.46;100.00;100037.66;10458711;28;20408;-69
2020/12/14 03:43:13;;;;;;;19.58;11.10;;;;;;;0.47;100.00;100039.38;10458412;28;20052;-69
2020/12/14 03:48:17;;;;;;;19.85;11.77;;;;;;;0.60;100.00;100051.16;10463110;28;20071;-69
2020/12/14 03:53:18;;;;;;;19.48;11.80;;;;;;;0.71;100.00;100054.34;10470192;28;20063;-69
2020/12/14 03:58:19;;;;;;;19.30;11.90;;;;;;;0.74;100.00;100059.44;10470827;28;20094;-69
2020/12/14 04:03:22;;;;;;;20.63;10.95;;;;;;;0.77;100.00;100059.38;10469910;28;20064;-69
2020/12/14 04:08:23;;;;;;;18.23;11.13;;;;;;;0.81;100.00;100065.34;10469642;28;20057;-70
2020/12/14 04:13:24;;;;;;;17.25;10.32;;;;;;;0.78;100.00;100065.38;10468026;28;20053;-68
2020/12/14 04:18:25;;;;;;;16.98;10.93;;;;;;;0.77;100.00;100061.94;10463525;28;20049;-68
2020/12/14 04:23:26;;;;;;;17.02;10.85;;;;;;;0.70;100.00;100060.38;10470156;28;20103;-68
2020/12/14 04:28:27;;;;;;;17.48;9.45;;;;;;;0.82;100.00;100062.69;10471002;28;20053;-68
2020/12/14 04:33:28;;;;;;;23.70;10.80;;;;;;;0.85;100.00;100042.06;10471088;28;20214;-68
2020/12/14 04:38:30;;;;;;;17.40;10.20;;;;;;;0.94;100.00;100040.16;10471719;28;20064;-68
2020/12/14 04:43:31;;;;;;;18.45;11.20;;;;;;;0.91;100.00;100051.38;10471775;28;20055;-69
2020/12/14 04:48:32;;;;;;;16.42;9.65;;;;;;;0.97;100.00;100056.38;10470357;28;20060;-69
2020/12/14 04:53:34;;;;;;;19.75;10.35;;;;;;;1.09;100.00;100050.13;10461497;28;20037;-69
2020/12/14 04:58:37;;;;;;;17.92;10.32;;;;;;;1.19;100.00;100056.78;10459530;28;20103;-69
2020/12/14 05:03:38;;;;;;;19.17;10.18;;;;;;;1.21;100.00;100044.72;10454340;28;20045;-70
2020/12/14 05:08:39;;;;;;;16.65;10.13;;;;;;;1.22;100.00;100044.66;10455357;28;20564;-70
2020/12/14 05:13:40;;;;;;;17.20;10.45;;;;;;;1.26;100.00;100037.75;10455383;28;20045;-70
2020/12/14 05:18:41;;;;;;;19.23;11.75;;;;;;;1.24;100.00;100048.06;10460071;28;20056;-69
2020/12/14 05:23:42;;;;;;;17.08;9.73;;;;;;;1.25;100.00;100047.19;10449831;28;20064;-69
2020/12/14 05:28:43;;;;;;;20.52;11.52;;;;;;;1.25;100.00;100036.03;10469345;28;20427;-70
2020/12/14 05:33:44;;;;;;;19.88;12.15;;;;;;;1.38;100.00;100040.03;10464277;28;20518;-69
2020/12/14 05:38:45;;;;;;;21.95;13.73;;;;;;;1.37;100.00;100051.25;10435991;28;20126;-69
2020/12/14 05:43:56;;;;;;;30.33;16.75;;;;;;;1.44;100.00;100057.94;10453175;28;20056;-69
2020/12/14 05:49:05;;;;;;;25.08;15.98;;;;;;;1.46;100.00;100063.06;10453483;28;20049;-69
2020/12/14 05:54:12;;;;;;;26.83;15.48;;;;;;;1.56;100.00;100062.81;10453214;28;20071;-70
2020/12/14 05:59:18;;;;;;;25.55;13.63;;;;;;;1.56;100.00;100056.81;10452665;28;20424;-69
2020/12/14 06:04:20;;;;;;;17.50;9.85;;;;;;;1.53;100.00;100051.72;10451763;28;20106;-68
2020/12/14 06:09:22;;;;;;;15.50;9.25;;;;;;;1.65;100.00;100057.44;10452438;28;20080;-69
2020/12/14 06:14:24;;;;;;;15.05;9.63;;;;;;;1.74;100.00;100051.22;10453023;28;20053;-69
2020/12/14 06:19:26;;;;;;;17.20;11.27;;;;;;;1.86;100.00;100052.66;10452286;28;20083;-69
2020/12/14 06:24:27;;;;;;;18.23;11.82;;;;;;;1.98;100.00;100052.38;10452021;28;20045;-70
2020/12/14 06:29:36;;;;;;;21.27;10.88;;;;;;;1.96;100.00;100067.03;10451570;28;20065;-70
2020/12/14 06:34:39;;;;;;;18.88;11.95;;;;;;;2.08;100.00;100069.31;10450962;28;20168;-69
2020/12/14 06:39:45;;;;;;;18.52;11.48;;;;;;;2.12;100.00;100064.03;10451094;28;20074;-69
2020/12/14 06:44:45;;;;;;;22.65;14.43;;;;;;;2.25;100.00;100068.88;10451410;28;20041;-69
2020/12/14 06:49:48;;;;;;;18.42;10.95;;;;;;;2.21;100.00;100069.84;10433599;28;20508;-70
2020/12/14 06:54:49;;;;;;;23.27;11.82;;;;;;;2.18;100.00;100072.50;10432257;28;20052;-70
2020/12/14 06:59:52;;;;;;;17.67;10.93;;;;;;;2.27;100.00;100074.84;10450339;28;20067;-70
2020/12/14 07:04:53;;;;;;;17.08;10.02;;;;;;;2.31;100.00;100077.31;10423014;28;20538;-70
2020/12/14 07:10:08;;;;;;;19.35;11.02;;;;;;;2.31;100.00;100079.03;10415165;28;20460;-70
2020/12/14 07:15:22;;;;;;;17.23;10.52;;;;;;;2.31;100.00;100094.53;10436319;28;20060;-70
2020/12/14 07:20:24;;;;;;;15.73;10.23;;;;;;;2.30;100.00;100088.53;10443156;28;20060;-70
2020/12/14 07:25:25;;;;;;;19.35;12.15;;;;;;;2.39;100.00;100092.59;10409693;28;20053;-70
2020/12/14 07:30:26;;;;;;;22.25;15.95;;;;;;;2.36;100.00;100103.00;10418562;28;20052;-70
2020/12/14 07:35:27;;;;;;;30.95;22.65;;;;;;;2.35;100.00;100102.16;10432562;28;20053;-70
2020/12/14 07:40:28;;;;;;;33.80;23.35;;;;;;;2.47;100.00;100101.00;10417671;28;20059;-70
2020/12/14 07:45:29;;;;;;;26.17;18.95;;;;;;;2.50;100.00;100106.94;10391279;28;20048;-70
2020/12/14 07:50:30;;;;;;;36.65;22.67;;;;;;;2.62;100.00;100105.78;10415683;28;20507;-70
2020/12/14 07:55:36;;;;;;;36.20;22.13;;;;;;;2.76;100.00;100114.00;10432499;28;20257;-70
2020/12/14 08:00:37;;;;;;;24.77;13.77;;;;;;;2.91;100.00;100115.31;10449022;28;20041;-70
2020/12/14 08:05:38;;;;;;;19.95;12.30;;;;;;;3.05;100.00;100120.94;10450383;28;20041;-70
2020/12/14 08:10:39;;;;;;;17.20;9.57;;;;;;;3.07;100.00;100119.16;10450716;28;20445;-71
2020/12/14 08:15:41;;;;;;;12.73;8.43;;;;;;;3.08;100.00;100122.59;10450063;28;20045;-71
2020/12/14 08:20:45;;;;;;;19.27;9.45;;;;;;;3.19;100.00;100124.00;10452640;28;20049;-71
2020/12/14 08:25:53;;;;;;;18.63;8.88;;;;;;;3.34;100.00;100120.97;10457297;28;20052;-70
2020/12/14 08:30:54;;;;;;;14.50;9.45;;;;;;;3.39;100.00;100132.03;10456634;28;20049;-71
2020/12/14 08:35:55;;;;;;;12.90;8.20;;;;;;;3.42;100.00;100131.94;10457073;28;20691;-71
2020/12/14 08:41:01;;;;;;;10.55;6.53;;;;;;;3.47;100.00;100125.75;10436019;28;20056;-71
2020/12/14 08:46:18;;;;;;;14.98;7.60;;;;;;;3.62;100.00;100135.66;10415318;28;20512;-71
2020/12/14 08:51:24;;;;;;;12.40;6.47;;;;;;;3.76;100.00;100136.06;10414924;28;20060;-70
2020/12/14 08:56:32;;;;;;;15.40;7.72;;;;;;;3.83;99.92;100132.41;10398313;28;20041;-71
2020/12/14 09:01:34;;;;;;;16.60;8.35;;;;;;;3.93;100.00;100128.66;10414121;28;20455;-70
2020/12/14 09:06:39;;;;;;;12.82;7.53;;;;;;;4.15;100.00;100140.03;10414916;28;20049;-71
2020/12/14 09:11:46;;;;;;;14.20;7.22;;;;;;;4.19;99.48;100146.78;10422030;28;20049;-72
2020/12/14 09:16:50;;;;;;;10.80;6.25;;;;;;;4.41;100.00;100140.91;10455184;28;20045;-71
2020/12/14 09:21:51;;;;;;;25.92;12.25;;;;;;;4.45;97.54;100152.88;10454885;28;20057;-72
2020/12/14 09:27:01;;;;;;;17.65;9.32;;;;;;;4.56;98.20;100146.44;10455047;28;20045;-72
2020/12/14 09:32:03;;;;;;;12.35;6.80;;;;;;;4.78;96.60;100149.13;10453119;28;20107;-71
2020/12/14 09:37:05;;;;;;;12.38;6.28;;;;;;;4.79;95.65;100153.41;10433878;28;20045;-71
2020/12/14 09:42:07;;;;;;;13.48;5.80;;;;;;;4.84;96.20;100156.69;10452715;28;20059;-71
2020/12/14 09:47:09;;;;;;;12.73;6.82;;;;;;;4.99;94.96;100158.75;10454269;28;20103;-72
2020/12/14 09:52:11;;;;;;;12.38;6.22;;;;;;;5.02;94.06;100158.66;10435824;28;20057;-72
2020/12/14 09:57:11;;;;;;;10.35;5.85;;;;;;;5.18;92.26;100159.78;10436535;28;20249;-71
2020/12/14 10:02:12;;;;;;;11.35;5.70;;;;;;;5.28;93.13;100154.28;10452369;28;20044;-71
2020/12/14 10:07:13;;;;;;;14.05;6.32;;;;;;;5.28;94.96;100152.53;10453573;28;20409;-71
2020/12/14 10:12:15;;;;;;;11.90;5.43;;;;;;;5.35;93.52;100153.13;10452972;28;20057;-71
2020/12/14 10:17:15;;;;;;;10.95;5.03;;;;;;;5.50;93.06;100131.81;10453397;28;20045;-71
2020/12/14 10:22:16;;;;;;;8.65;5.00;;;;;;;5.69;92.24;100132.78;10452897;28;20060;-71
2020/12/14 10:27:17;;;;;;;10.57;5.70;;;;;;;5.83;91.75;100124.47;10452945;28;20583;-71
2020/12/14 10:32:18;;;;;;;9.38;5.25;;;;;;;5.80;89.56;100140.16;10450803;28;20075;-72
2020/12/14 10:37:23;;;;;;;9.68;5.22;;;;;;;6.03;90.53;100134.09;10452652;28;20049;-72
2020/12/14 10:42:23;;;;;;;9.30;5.55;;;;;;;6.32;88.62;100131.16;10451831;28;20045;-72
2020/12/14 10:47:25;;;;;;;8.07;4.20;;;;;;;6.10;87.34;100112.16;10452460;28;20045;-70
2020/12/14 10:52:26;;;;;;;8.43;4.57;;;;;;;6.36;86.07;100110.19;10451773;28;20052;-72
2020/12/14 10:57:27;;;;;;;8.77;4.63;;;;;;;6.53;84.61;100114.69;10452187;28;20077;-73
2020/12/14 11:02:28;;;;;;;8.77;4.57;;;;;;;6.48;85.88;100105.38;10414802;28;20061;-70
2020/12/14 11:07:31;;;;;;;9.90;4.50;;;;;;;6.68;85.73;100108.84;10411004;28;20077;-71
2020/12/14 11:12:32;;;;;;;6.97;4.35;;;;;;;6.86;82.40;100120.19;10425105;28;20048;-70
2020/12/14 11:17:35;;;;;;;10.98;4.70;;;;;;;6.67;83.75;100114.09;10447204;28;20049;-73
2020/12/14 11:22:36;;;;;;;8.50;4.30;;;;;;;6.77;83.70;100113.63;10451228;28;20053;-70
2020/12/14 11:27:37;;;;;;;11.27;4.45;;;;;;;6.99;83.86;100115.31;10450797;28;20056;-69
2020/12/14 11:32:38;;;;;;;6.90;3.75;;;;;;;6.98;82.54;100108.41;10450512;28;20067;-70
2020/12/14 11:37:40;;;;;;;8.65;3.70;;;;;;;7.09;81.42;100093.16;10424592;28;20149;-70
2020/12/14 11:42:41;;;;;;;10.57;5.53;;;;;;;6.86;83.22;100087.22;10409236;28;20049;-70
2020/12/14 11:47:42;;;;;;;12.40;6.00;;;;;;;7.04;81.74;100085.56;10409990;28;20053;-70
2020/12/14 11:52:46;;;;;;;12.10;4.90;;;;;;;7.04;83.83;100082.13;10409223;28;20081;-70
2020/12/14 11:57:47;;;;;;;10.25;5.47;;;;;;;7.02;84.25;100078.72;10416312;28;20053;-70
2020/12/14 12:02:48;;;;;;;8.50;5.65;;;;;;;7.05;84.15;100083.81;10399271;28;20440;-71
2020/12/14 12:07:50;;;;;;;9.35;5.35;;;;;;;7.04;83.71;100087.31;10417580;28;20684;-71
2020/12/14 12:12:51;;;;;;;11.88;6.00;;;;;;;7.00;84.45;100086.63;10434621;28;20096;-71
2020/12/14 12:17:53;;;;;;;9.15;4.80;;;;;;;6.98;82.96;100091.03;10458266;28;20135;-71
2020/12/14 12:22:58;;;;;;;9.60;5.30;;;;;;;7.08;81.69;100087.13;10457964;28;20100;-71
2020/12/14 12:27:59;;;;;;;13.05;4.75;;;;;;;7.07;81.16;100085.41;10458042;28;20103;-71
2020/12/14 12:33:01;;;;;;;8.75;4.60;;;;;;;7.07;81.26;100074.16;10457015;28;20045;-73
2020/12/14 12:38:02;;;;;;;10.23;5.50;;;;;;;6.92;84.47;100056.63;10471085;28;20060;-72
2020/12/14 12:43:03;;;;;;;8.10;4.93;;;;;;;6.95;84.92;100051.31;10463895;28;20442;-73
2020/12/14 12:48:04;;;;;;;12.30;5.30;;;;;;;7.02;82.62;100052.72;10466023;28;20067;-72
2020/12/14 12:53:05;;;;;;;10.02;5.10;;;;;;;7.10;80.81;100055.81;10467628;28;20067;-71
2020/12/14 12:58:06;;;;;;;10.60;4.65;;;;;;;7.09;82.48;100046.31;10449336;28;20526;-71
2020/12/14 13:03:07;;;;;;;9.82;3.88;;;;;;;7.09;81.84;100041.13;10439796;28;20514;-71
2020/12/14 13:08:09;;;;;;;7.88;4.38;;;;;;;7.07;82.42;100032.53;10455516;28;20050;-72
2020/12/14 13:13:10;;;;;;;8.25;4.20;;;;;;;7.00;83.13;100033.72;10436197;28;20053;-71
2020/12/14 13:18:11;;;;;;;9.88;4.85;;;;;;;7.00;83.06;100018.13;10414646;28;20056;-71
2020/12/14 13:23:12;;;;;;;9.60;4.90;;;;;;;7.10;83.22;100014.19;10414883;28;20045;-71
2020/12/14 13:28:13;;;;;;;9.20;4.60;;;;;;;7.09;83.73;100009.88;10396968;28;20103;-71
2020/12/14 13:33:14;;;;;;;8.70;4.47;;;;;;;7.03;82.92;100007.56;10421229;28;20518;-70
2020/12/14 13:38:15;;;;;;;8.38;4.43;;;;;;;7.04;83.01;99998.84;10438122;28;20060;-71
2020/12/14 13:43:16;;;;;;;7.38;3.83;;;;;;;7.13;82.28;99995.81;10454795;28;20055;-71
2020/12/14 13:48:17;;;;;;;8.85;4.95;;;;;;;7.19;80.29;99993.78;10455119;28;20045;-71
2020/12/14 13:53:18;;;;;;;229.65;37.83;;;;;;;7.15;80.23;99989.63;10454617;28;20060;-72
2020/12/14 13:58:19;;;;;;;10.27;4.90;;;;;;;7.25;78.56;99998.72;10454880;28;20052;-71
2020/12/14 14:03:20;;;;;;;8.95;5.28;;;;;;;6.98;80.20;99999.97;10453299;28;20533;-71
2020/12/14 14:08:21;;;;;;;14.05;6.72;;;;;;;6.98;81.57;99997.38;10444507;28;20045;-70
2020/12/14 14:13:22;;;;;;;12.50;5.50;;;;;;;6.87;81.38;99997.84;10432329;28;20080;-71
2020/12/14 14:18:23;;;;;;;9.75;5.85;;;;;;;6.87;80.90;99991.81;10453246;28;20060;-71
2020/12/14 14:23:24;;;;;;;11.00;6.07;;;;;;;6.83;82.47;99988.50;10454802;28;20052;-70
2020/12/14 14:28:25;;;;;;;10.70;5.70;;;;;;;6.75;82.89;99993.22;10478662;28;20124;-71
2020/12/14 14:33:26;;;;;;;12.07;5.75;;;;;;;6.68;83.85;99998.75;10493460;28;20110;-70
2020/12/14 14:38:28;;;;;;;12.68;6.28;;;;;;;6.65;83.97;99988.50;10493707;28;20134;-70
2020/12/14 14:43:29;;;;;;;19.95;7.43;;;;;;;6.57;84.00;99981.03;10493219;28;20068;-70
2020/12/14 14:48:30;;;;;;;15.25;7.63;;;;;;;6.54;84.22;99978.59;10493456;28;20049;-70
2020/12/14 14:53:34;;;;;;;13.63;7.93;;;;;;;6.47;85.01;99974.56;10493528;28;20044;-70
2020/12/14 14:58:34;;;;;;;14.38;7.90;;;;;;;6.43;84.99;99975.59;10493920;28;20049;-70
2020/12/14 15:03:35;;;;;;;16.60;7.70;;;;;;;6.51;85.15;99978.69;10492036;28;20056;-70
2020/12/14 15:08:37;;;;;;;14.30;7.20;;;;;;;6.35;86.95;99978.53;10493075;28;20071;-71
2020/12/14 15:13:38;;;;;;;12.52;6.18;;;;;;;6.08;89.17;99963.31;10468786;28;20053;-70
2020/12/14 15:18:38;;;;;;;11.07;6.22;;;;;;;5.97;90.56;99962.00;10451355;28;20044;-70
2020/12/14 15:23:40;;;;;;;18.70;9.32;;;;;;;6.08;89.74;99963.31;10428876;28;20065;-71
2020/12/14 15:28:42;;;;;;;12.10;7.38;;;;;;;5.90;91.43;99970.94;10450820;28;20053;-69
2020/12/14 15:33:44;;;;;;;11.10;6.35;;;;;;;5.88;90.97;99956.34;10447636;28;20052;-70
2020/12/14 15:38:48;;;;;;;10.82;6.65;;;;;;;5.96;90.57;99952.53;10449995;28;20468;-72
2020/12/14 15:43:51;;;;;;;14.23;6.75;;;;;;;5.88;90.33;99967.59;10447613;28;20049;-71
2020/12/14 15:48:54;;;;;;;10.35;5.85;;;;;;;5.81;90.03;99976.50;10451143;28;20053;-71
2020/12/14 15:53:55;;;;;;;13.57;7.25;;;;;;;5.87;89.07;99968.50;10451965;28;20049;-71
2020/12/14 15:58:56;;;;;;;10.98;5.97;;;;;;;5.74;90.46;99958.66;10451218;28;20053;-72
2020/12/14 16:03:57;;;;;;;14.32;6.60;;;;;;;5.75;90.18;99955.97;10431370;28;20060;-71
2020/12/14 16:09:02;;;;;;;11.98;6.00;;;;;;;5.66;91.29;99958.97;10451016;28;20053;-71
2020/12/14 16:14:03;;;;;;;14.95;6.57;;;;;;;5.66;90.71;99960.72;10425755;28;20077;-71
2020/12/14 16:19:04;;;;;;;13.02;6.75;;;;;;;5.68;90.39;99958.91;10410981;28;20049;-71
2020/12/14 16:24:05;;;;;;;11.25;5.88;;;;;;;5.63;90.94;99960.84;10411073;28;20460;-71
2020/12/14 16:29:06;;;;;;;13.40;7.20;;;;;;;5.58;91.48;99963.63;10411814;28;20050;-72
2020/12/14 16:34:07;;;;;;;13.52;7.50;;;;;;;5.56;90.95;99939.47;10393094;28;20049;-72
2020/12/14 16:39:15;;;;;;;17.60;8.13;;;;;;;5.57;90.85;99941.19;10394866;28;20496;-72
2020/12/14 16:44:16;;;;;;;19.42;8.90;;;;;;;5.59;91.69;99947.13;10415159;28;20795;-70
2020/12/14 16:49:18;;;;;;;11.98;6.97;;;;;;;5.44;92.38;99929.59;10416511;28;20052;-69
2020/12/14 16:54:20;;;;;;;15.00;8.75;;;;;;;5.38;92.86;99935.91;10415862;28;20045;-70
2020/12/14 16:59:24;;;;;;;17.02;7.82;;;;;;;5.41;92.78;99934.91;10415716;28;20559;-72
2020/12/14 17:05:09;;;;;;;12.60;7.38;;;;;;;5.41;93.47;99940.09;10414911;28;20045;-73
2020/12/14 17:09:49;;;;;;;17.45;7.82;;;;;;;5.29;94.17;99946.63;10409646;28;20071;-73
2020/12/14 17:14:50;;;;;;;15.52;8.68;;;;;;;5.37;94.39;99943.75;10422859;28;20076;-74
2020/12/14 17:19:51;;;;;;;14.05;8.15;;;;;;;5.20;94.58;99926.25;10415142;28;20510;-74
2020/12/14 17:24:53;;;;;;;11.82;7.53;;;;;;;5.23;94.59;99912.31;10414612;28;20072;-74
2020/12/14 17:29:54;;;;;;;17.77;9.10;;;;;;;5.18;94.97;99907.31;10405900;28;20100;-72
2020/12/14 17:34:56;;;;;;;17.80;9.52;;;;;;;5.20;94.38;99904.63;10395428;28;20060;-73
2020/12/14 17:39:57;;;;;;;17.25;9.63;;;;;;;5.24;94.96;99916.56;10435752;28;20052;-71
2020/12/14 17:44:58;;;;;;;16.63;8.75;;;;;;;5.16;95.48;99916.91;10452312;28;20045;-71
2020/12/14 17:49:59;;;;;;;17.42;8.27;;;;;;;5.20;94.73;99920.22;10454579;28;20089;-71
2020/12/14 17:55:00;;;;;;;15.13;7.32;;;;;;;5.05;96.60;99926.84;10436333;28;20092;-71
2020/12/14 18:00:06;;;;;;;11.65;6.63;;;;;;;4.96;96.69;99925.47;10454306;28;20492;-71
2020/12/14 18:05:09;;;;;;;12.93;7.45;;;;;;;4.93;95.82;99922.97;10435943;28;20496;-69
2020/12/14 18:10:10;;;;;;;12.77;6.70;;;;;;;4.78;98.02;99923.56;10453787;28;20048;-69
2020/12/14 18:15:10;;;;;;;11.38;6.50;;;;;;;4.62;99.40;99935.44;10417152;28;20049;-69
2020/12/14 18:20:11;;;;;;;13.18;6.65;;;;;;;4.60;100.00;99935.50;10412231;28;20049;-69
2020/12/14 18:25:15;;;;;;;12.85;7.20;;;;;;;4.64;99.93;99951.75;10460847;23;20053;-71
2020/12/14 18:30:16;;;;;;;16.45;7.03;;;;;;;4.65;99.69;99963.81;10453998;28;20411;-68
2020/12/14 21:27:01;;;;;;;17.58;11.32;;;;;;;2.44;100.00;99967.63;10417813;28;20040;-70
2020/12/14 21:32:03;;;;;;;18.63;11.35;;;;;;;2.44;100.00;99975.38;10454018;28;20053;-70
2020/12/14 21:37:04;;;;;;;21.33;11.35;;;;;;;2.43;100.00;99978.88;10455812;28;20053;-72
2020/12/14 21:42:05;;;;;;;19.00;10.70;;;;;;;2.47;100.00;99975.31;10454756;28;20416;-72
2020/12/14 21:47:06;;;;;;;20.30;11.77;;;;;;;2.44;100.00;99977.09;10455678;28;20045;-71
2020/12/14 21:52:07;;;;;;;19.63;11.63;;;;;;;2.44;100.00;99971.94;10454541;28;20049;-71
2020/12/14 21:57:08;;;;;;;15.18;9.30;;;;;;;2.47;100.00;99966.69;10435666;28;20088;-70
2020/12/14 22:02:09;;;;;;;15.43;8.57;;;;;;;2.47;100.00;99977.88;10453933;28;20049;-71
2020/12/14 22:07:10;;;;;;;17.17;9.07;;;;;;;2.53;100.00;99993.22;10454516;28;20059;-71
2020/12/14 22:12:13;;;;;;;17.95;10.48;;;;;;;2.55;100.00;99999.16;10436735;28;20053;-70
2020/12/14 22:17:14;;;;;;;17.60;9.88;;;;;;;2.56;100.00;99994.84;10454339;28;20064;-71
2020/12/14 22:22:15;;;;;;;19.45;10.40;;;;;;;2.49;100.00;99996.75;10453347;28;20099;-71
2020/12/14 22:27:16;;;;;;;17.42;10.32;;;;;;;2.56;100.00;99997.44;10454116;28;20056;-71
2020/12/14 22:32:17;;;;;;;16.42;9.93;;;;;;;2.57;100.00;99999.97;10452673;28;20057;-71
2020/12/14 22:37:18;;;;;;;20.52;11.77;;;;;;;2.57;100.00;99994.81;10436000;28;20052;-71
2020/12/14 22:42:27;;;;;;;18.35;11.38;;;;;;;2.55;100.00;100004.34;10452684;28;20099;-70
2020/12/14 22:47:28;;;;;;;19.75;12.30;;;;;;;2.55;100.00;99998.31;10435418;28;20095;-71
2020/12/14 22:52:29;;;;;;;20.40;11.27;;;;;;;2.41;100.00;99998.72;10452108;28;20057;-70
2020/12/14 22:57:30;;;;;;;16.67;9.80;;;;;;;2.35;100.00;99992.84;10434767;28;20045;-72
2020/12/14 23:02:31;;;;;;;16.40;9.93;;;;;;;2.32;100.00;99988.63;10450445;28;20041;-71
2020/12/14 23:07:32;;;;;;;13.85;8.55;;;;;;;2.19;100.00;99987.25;10448030;28;20055;-70
2020/12/14 23:12:42;;;;;;;16.52;8.63;;;;;;;2.14;100.00;99978.78;10453386;28;20103;-70
2020/12/14 23:17:44;;;;;;;14.70;9.20;;;;;;;2.19;100.00;99984.69;10451502;28;20489;-70
2020/12/14 23:22:45;;;;;;;14.38;9.32;;;;;;;2.29;100.00;99993.00;10433176;28;20053;-70
2020/12/14 23:27:46;;;;;;;17.92;10.55;;;;;;;2.45;100.00;99986.53;10451433;28;20107;-70
2020/12/14 23:32:47;;;;;;;16.52;10.35;;;;;;;2.56;100.00;99976.75;10450072;28;20053;-70
2020/12/14 23:37:50;;;;;;;16.58;9.35;;;;;;;2.54;100.00;99971.63;10451095;28;20084;-70
2020/12/14 23:42:59;;;;;;;17.33;9.93;;;;;;;2.56;100.00;99967.28;10450729;28;20087;-71
2020/12/14 23:48:00;;;;;;;18.48;10.02;;;;;;;2.64;100.00;99969.66;10451065;28;20049;-71
2020/12/14 23:53:01;;;;;;;20.52;11.48;;;;;;;2.78;100.00;99987.34;10455959;28;20500;-71
2020/12/14 23:58:02;;;;;;;26.38;14.95;;;;;;;2.87;100.00;99985.31;10458591;28;20083;-70
